Time;durP1;ratioP1;P1;durP2;ratioP2;P2;SDS_P1;SDS_P2;PMS_P1;PMS_P2;Temp;Humidity;BMP_temperature;BMP_pressure;BME280_temperature;BME280_humidity;BME280_pressure;Samples;Min_cycle;Max_cycle;Signal;HPM_P1;HPM_P2
2021/01/03 00:00:35;;;;;;;;;;;;;;;2.11;100.00;97367.34;4969598;28;20437;-88
2021/01/03 00:03:01;;;;;;;;;;;;;;;2.09;100.00;97366.78;4969115;28;19914;-91
2021/01/03 00:05:30;;;;;;;;;;;;;;;2.03;100.00;97367.81;4966748;28;20374;-85
2021/01/03 00:07:56;;;;;;;;;;;;;;;2.06;100.00;97375.38;4983912;28;19914;-87
2021/01/03 00:10:21;;;;;;;;;;;;;;;2.05;100.00;97373.75;4966934;28;20426;-82
2021/01/03 00:12:47;;;;;;;;;;;;;;;1.93;100.00;97378.50;4978692;28;19918;-85
2021/01/03 00:15:14;;;;;;;;;;;;;;;1.98;100.00;97383.94;4986683;28;20354;-84
2021/01/03 00:17:42;;;;;;;;;;;;;;;1.95;100.00;97381.75;4972101;28;19914;-90
2021/01/03 00:20:09;;;;;;;;;;;;;;;1.83;100.00;97378.38;4969125;28;19914;-88
2021/01/03 00:22:35;;;;;;;;;;;;;;;1.86;100.00;97379.75;4984259;28;20680;-86
2021/01/03 00:25:00;;;;;;;;;;;;;;;1.79;100.00;97379.13;4967358;28;19914;-86
2021/01/03 00:27:25;;;;;;;;;;;;;;;1.81;100.00;97388.63;4985030;28;20323;-89
2021/01/03 00:29:50;;;;;;;;;;;;;;;1.87;100.00;97395.69;4977213;28;19913;-91
2021/01/03 00:32:16;;;;;;;;;;;;;;;1.83;100.00;97389.16;4975251;28;19918;-88
2021/01/03 00:34:41;;;;;;;;;;;;;;;1.92;100.00;97395.72;4997035;28;19906;-85
2021/01/03 00:37:07;;;;;;;;;;;;;;;2.06;100.00;97399.66;4978375;28;19968;-87
2021/01/03 00:39:32;;;;;;;;;;;;;;;1.95;100.00;97392.53;4980350;28;19920;-86
2021/01/03 00:41:57;;;;;;;;;;;;;;;1.99;100.00;97390.13;5007925;28;20020;-88
2021/01/03 00:44:22;;;;;;;;;;;;;;;1.85;100.00;97397.81;5011883;28;19925;-87
2021/01/03 00:46:48;;;;;;;;;;;;;;;2.00;100.00;97395.28;5012574;28;19920;-86
2021/01/03 00:49:13;;;;;;;;;;;;;;;2.07;100.00;97398.56;5013009;28;19920;-84
2021/01/03 00:51:38;;;;;;;;;;;;;;;2.11;100.00;97407.78;5014159;28;19925;-84
2021/01/03 00:54:04;;;;;;;;;;;;;;;2.29;100.00;97408.50;5013731;28;19914;-86
2021/01/03 00:56:29;;;;;;;;;;;;;;;2.21;100.00;97409.78;5013093;28;19937;-86
2021/01/03 00:58:54;;;;;;;;;;;;;;;2.20;100.00;97412.72;4995630;28;19918;-90
2021/01/03 01:01:21;;;;;;;;;;;;;;;2.07;100.00;97414.75;5012695;28;19921;-88
2021/01/03 01:03:48;;;;;;;;;;;;;;;2.06;100.00;97417.72;5016417;28;19913;-83
2021/01/03 01:06:13;;;;;;;;;;;;;;;2.12;100.00;97419.41;4999009;28;21362;-85
2021/01/03 01:08:39;;;;;;;;;;;;;;;2.12;100.00;97412.13;5014952;28;19912;-85
2021/01/03 01:11:05;;;;;;;;;;;;;;;2.01;100.00;97410.38;5015225;28;19941;-90
2021/01/03 01:13:30;;;;;;;;;;;;;;;1.94;100.00;97409.75;4998695;28;19905;-84
2021/01/03 01:15:55;;;;;;;;;;;;;;;1.94;100.00;97407.06;5016058;28;20984;-85
2021/01/03 01:18:21;;;;;;;;;;;;;;;1.91;100.00;97410.28;4998966;28;19920;-84
2021/01/03 01:20:46;;;;;;;;;;;;;;;1.91;100.00;97412.97;5015106;28;19985;-86
2021/01/03 01:23:11;;;;;;;;;;;;;;;1.82;100.00;97416.34;4998692;28;19973;-86
2021/01/03 01:25:37;;;;;;;;;;;;;;;1.92;100.00;97414.59;4994224;28;19905;-83
2021/01/03 01:28:02;;;;;;;;;;;;;;;1.90;100.00;97421.31;4994701;28;19928;-88
2021/01/03 01:30:29;;;;;;;;;;;;;;;1.92;100.00;97417.31;5011430;28;19914;-85
2021/01/03 01:32:55;;;;;;;;;;;;;;;1.84;100.00;97412.38;5012688;28;19920;-85
2021/01/03 01:35:22;;;;;;;;;;;;;;;1.81;100.00;97415.56;4992901;28;19922;-89
2021/01/03 01:37:48;;;;;;;;;;;;;;;1.85;100.00;97416.69;4997006;28;19921;-92
2021/01/03 01:40:15;;;;;;;;;;;;;;;1.91;100.00;97423.75;4994265;28;19913;-85
2021/01/03 01:42:40;;;;;;;;;;;;;;;1.94;100.00;97417.84;4993905;28;19913;-84
2021/01/03 01:45:09;;;;;;;;;;;;;;;2.09;100.00;97418.03;4994015;28;19913;-89
2021/01/03 01:47:36;;;;;;;;;;;;;;;2.04;100.00;97420.66;4993865;28;19914;-88
2021/01/03 01:50:07;;;;;;;;;;;;;;;1.93;100.00;97410.84;4995763;28;19902;-87
2021/01/03 01:52:36;;;;;;;;;;;;;;;1.90;100.00;97408.66;5013102;28;19917;-91
2021/01/03 01:55:04;;;;;;;;;;;;;;;1.84;100.00;97401.59;4995143;28;19902;-88
2021/01/03 01:57:32;;;;;;;;;;;;;;;1.79;100.00;97404.22;5010821;28;19921;-84
2021/01/03 02:00:02;;;;;;;;;;;;;;;1.92;100.00;97395.72;4994229;28;19917;-87
2021/01/03 02:02:33;;;;;;;;;;;;;;;2.02;100.00;97395.84;5012500;28;19913;-85
2021/01/03 02:05:02;;;;;;;;;;;;;;;2.06;100.00;97390.75;4994724;28;19917;-86
2021/01/03 02:07:27;;;;;;;;;;;;;;;2.08;100.00;97400.22;5011220;28;20195;-88
2021/01/03 02:10:14;;;;;;;;;;;;;;;2.02;100.00;97395.84;4994764;28;19968;-84
2021/01/03 02:12:42;;;;;;;;;;;;;;;2.13;100.00;97400.25;5013318;28;19932;-88
2021/01/03 02:15:09;;;;;;;;;;;;;;;2.05;100.00;97399.91;4997491;28;19918;-85
2021/01/03 02:17:35;;;;;;;;;;;;;;;2.04;100.00;97404.47;4995470;28;19898;-86
2021/01/03 02:20:00;;;;;;;;;;;;;;;1.96;100.00;97402.25;5009424;28;19924;-81
2021/01/03 02:22:40;;;;;;;;;;;;;;;1.93;100.00;97397.38;5011797;28;19906;-83
2021/01/03 02:25:07;;;;;;;;;;;;;;;2.06;100.00;97402.38;4994674;28;19981;-85
2021/01/03 02:27:53;;;;;;;;;;;;;;;2.19;100.00;97400.31;5012071;28;19913;-85
2021/01/03 02:30:19;;;;;;;;;;;;;;;2.21;100.00;97403.56;4996711;28;19959;-83
2021/01/03 02:32:49;;;;;;;;;;;;;;;2.07;100.00;97393.19;5014223;28;20378;-84
2021/01/03 02:35:15;;;;;;;;;;;;;;;2.07;100.00;97393.19;4996347;28;19920;-87
2021/01/03 02:37:42;;;;;;;;;;;;;;;2.08;100.00;97394.81;5014018;28;19920;-84
2021/01/03 02:40:18;;;;;;;;;;;;;;;2.07;100.00;97401.28;4996795;28;19898;-84
2021/01/03 02:42:43;;;;;;;;;;;;;;;2.09;100.00;97409.94;4996384;28;19969;-84
2021/01/03 02:45:12;;;;;;;;;;;;;;;2.13;100.00;97402.16;4997265;28;19929;-85
2021/01/03 02:47:38;;;;;;;;;;;;;;;2.25;100.00;97402.81;4998623;28;19914;-85
2021/01/03 02:50:05;;;;;;;;;;;;;;;2.28;100.00;97410.38;4995091;28;19936;-85
2021/01/03 02:52:32;;;;;;;;;;;;;;;2.33;100.00;97412.31;5012486;28;19913;-85
2021/01/03 02:54:58;;;;;;;;;;;;;;;2.28;100.00;97410.38;4996868;28;19893;-83
2021/01/03 02:57:23;;;;;;;;;;;;;;;2.19;100.00;97414.63;4998300;28;19914;-84
2021/01/03 02:59:49;;;;;;;;;;;;;;;2.20;100.00;97418.94;5014306;28;19917;-84
2021/01/03 03:02:14;;;;;;;;;;;;;;;2.22;100.00;97421.38;4998389;28;19918;-86
2021/01/03 03:04:40;;;;;;;;;;;;;;;2.28;100.00;97421.19;5015166;28;19914;-85
2021/01/03 03:07:06;;;;;;;;;;;;;;;2.36;100.00;97417.19;5000909;28;19918;-87
2021/01/03 03:09:31;;;;;;;;;;;;;;;2.43;100.00;97418.63;5004311;28;19906;-88
2021/01/03 03:11:56;;;;;;;;;;;;;;;2.36;100.00;97418.00;5004318;28;19909;-86
2021/01/03 03:14:22;;;;;;;;;;;;;;;2.29;100.00;97412.00;5004366;28;19925;-86
2021/01/03 03:16:48;;;;;;;;;;;;;;;2.26;100.00;97412.50;5021150;28;19957;-85
2021/01/03 03:19:14;;;;;;;;;;;;;;;2.28;100.00;97406.88;5003643;28;19902;-85
2021/01/03 03:21:40;;;;;;;;;;;;;;;2.21;100.00;97398.16;5003983;28;19927;-86
2021/01/03 03:24:05;;;;;;;;;;;;;;;2.20;100.00;97399.22;5020640;28;19918;-86
2021/01/03 03:26:43;;;;;;;;;;;;;;;2.15;100.00;97395.44;5002679;28;19913;-86
2021/01/03 03:29:09;;;;;;;;;;;;;;;2.20;100.00;97399.22;5002683;28;20314;-83
2021/01/03 03:31:34;;;;;;;;;;;;;;;2.25;100.00;97404.69;5019048;28;19914;-85
2021/01/03 03:34:00;;;;;;;;;;;;;;;2.39;100.00;97413.97;5003401;28;19902;-86
2021/01/03 03:36:25;;;;;;;;;;;;;;;2.41;100.00;97403.75;5017608;28;19937;-88
2021/01/03 03:38:50;;;;;;;;;;;;;;;2.48;100.00;97407.84;4976903;28;19918;-86
2021/01/03 03:41:17;;;;;;;;;;;;;;;2.41;100.00;97403.75;4960633;29;19915;-84
2021/01/03 03:43:43;;;;;;;;;;;;;;;2.34;100.00;97392.34;4960915;29;19903;-85
2021/01/03 03:46:08;;;;;;;;;;;;;;;2.25;100.00;97400.09;4976910;29;19922;-86
2021/01/03 03:48:34;;;;;;;;;;;;;;;2.24;100.00;97386.88;4977189;29;19910;-84
2021/01/03 03:50:59;;;;;;;;;;;;;;;2.23;100.00;97385.22;4961154;29;19915;-83
2021/01/03 03:53:25;;;;;;;;;;;;;;;2.22;100.00;97383.63;4962624;28;19903;-88
2021/01/03 03:55:50;;;;;;;;;;;;;;;2.34;100.00;97385.06;4961585;29;19986;-86
2021/01/03 03:58:16;;;;;;;;;;;;;;;2.37;100.00;97389.97;4978603;29;19915;-85
2021/01/03 04:00:41;;;;;;;;;;;;;;;2.48;100.00;97388.16;4961512;29;19899;-84
2021/01/03 04:03:06;;;;;;;;;;;;;;;2.26;100.00;97390.94;4971179;29;19937;-88
2021/01/03 04:05:32;;;;;;;;;;;;;;;2.08;100.00;97377.81;4950183;29;19914;-85
2021/01/03 04:07:57;;;;;;;;;;;;;;;2.22;100.00;97391.72;4967156;29;19914;-85
2021/01/03 04:10:22;;;;;;;;;;;;;;;2.32;100.00;97399.91;4982451;28;19936;-89
2021/01/03 04:12:48;;;;;;;;;;;;;;;2.23;100.00;97401.41;5005842;28;19921;-89
2021/01/03 04:15:14;;;;;;;;;;;;;;;2.12;100.00;97385.16;4988478;28;19937;-91
2021/01/03 04:17:39;;;;;;;;;;;;;;;1.97;100.00;97387.69;4983929;28;19932;-91
2021/01/03 04:20:06;;;;;;;;;;;;;;;1.91;100.00;97383.31;4985906;28;19985;-87
2021/01/03 04:22:31;;;;;;;;;;;;;;;1.98;100.00;97383.94;4987314;28;19909;-88
2021/01/03 04:24:57;;;;;;;;;;;;;;;2.05;100.00;97384.53;4995023;28;19914;-84
2021/01/03 04:27:22;;;;;;;;;;;;;;;2.12;100.00;97389.72;5012142;28;19917;-85
2021/01/03 04:29:48;;;;;;;;;;;;;;;2.01;100.00;97383.41;5012736;28;19981;-86
2021/01/03 04:32:13;;;;;;;;;;;;;;;2.05;100.00;97395.31;4995317;28;19914;-84
2021/01/03 04:34:40;;;;;;;;;;;;;;;2.14;100.00;97398.38;4996704;28;19921;-83
2021/01/03 04:37:05;;;;;;;;;;;;;;;2.13;100.00;97394.06;4991849;28;19930;-83
2021/01/03 04:39:31;;;;;;;;;;;;;;;2.15;100.00;97406.22;4994364;28;19898;-85
2021/01/03 04:42:02;;;;;;;;;;;;;;;2.30;100.00;97402.84;4994528;28;19914;-84
2021/01/03 04:44:33;;;;;;;;;;;;;;;2.26;100.00;97396.31;4977401;28;19978;-84
2021/01/03 04:47:03;;;;;;;;;;;;;;;2.40;100.00;97402.13;4991710;28;19914;-84
2021/01/03 04:49:37;;;;;;;;;;;;;;;2.33;100.00;97396.13;4990269;28;19961;-87
2021/01/03 04:52:22;;;;;;;;;;;;;;;2.27;100.00;97397.97;4989995;28;19921;-87
2021/01/03 04:54:57;;;;;;;;;;;;;;;2.26;100.00;97403.59;4968433;28;19918;-83
2021/01/03 04:57:30;;;;;;;;;;;;;;;2.30;100.00;97410.13;4968691;28;20719;-90
2021/01/03 04:59:57;;;;;;;;;;;;;;;2.31;100.00;97409.88;4966317;28;19914;-84
2021/01/03 05:02:31;;;;;;;;;;;;;;;2.36;100.00;97406.41;4965320;28;19914;-90
2021/01/03 05:05:13;;;;;;;;;;;;;;;2.35;100.00;97407.47;4983663;28;19925;-91
2021/01/03 05:07:43;;;;;;;;;;;;;;;2.30;100.00;97407.41;4982909;28;19918;-90
2021/01/03 05:10:11;;;;;;;;;;;;;;;2.22;100.00;97406.03;4983299;28;20012;-86
2021/01/03 05:12:49;;;;;;;;;;;;;;;2.17;100.00;97404.06;4983421;28;19914;-89
2021/01/03 05:15:21;;;;;;;;;;;;;;;2.30;100.00;97399.31;4982625;28;19960;-85
2021/01/03 05:17:46;;;;;;;;;;;;;;;2.30;100.00;97402.84;4982013;28;19926;-89
2021/01/03 05:20:12;;;;;;;;;;;;;;;2.23;100.00;97409.50;4960394;28;19970;-89
2021/01/03 05:22:39;;;;;;;;;;;;;;;2.35;100.00;97402.09;4963947;28;20381;-89
2021/01/03 05:25:06;;;;;;;;;;;;;;;2.40;100.00;97402.13;4977697;28;19940;-90
2021/01/03 05:27:32;;;;;;;;;;;;;;;2.29;100.00;97406.59;4966140;28;19949;-87
2021/01/03 05:30:16;;;;;;;;;;;;;;;2.38;100.00;97413.16;4976582;28;19976;-87
2021/01/03 05:32:41;;;;;;;;;;;;;;;2.41;100.00;97403.75;4959750;28;20016;-90
2021/01/03 05:35:22;;;;;;;;;;;;;;;2.54;100.00;97406.00;4977758;28;19950;-89
2021/01/03 05:37:49;;;;;;;;;;;;;;;2.44;100.00;97409.47;4984859;28;19931;-91
2021/01/03 05:40:19;;;;;;;;;;;;;;;2.50;100.00;97407.63;4986623;28;20371;-89
2021/01/03 05:42:44;;;;;;;;;;;;;;;2.49;100.00;97411.38;4983374;28;19924;-85
2021/01/03 05:45:25;;;;;;;;;;;;;;;2.56;100.00;97431.69;4988163;28;19933;-89
2021/01/03 05:47:59;;;;;;;;;;;;;;;2.51;100.00;97425.41;4973031;28;19925;-87
2021/01/03 05:50:24;;;;;;;;;;;;;;;2.35;100.00;97424.47;4988978;28;19920;-88
2021/01/03 05:52:52;;;;;;;;;;;;;;;2.44;100.00;97430.22;4970022;28;20016;-82
2021/01/03 05:55:22;;;;;;;;;;;;;;;2.41;100.00;97426.13;4986044;28;19909;-89
2021/01/03 05:57:47;;;;;;;;;;;;;;;2.39;100.00;97432.88;4984370;28;19914;-88
2021/01/03 06:00:17;;;;;;;;;;;;;;;2.39;100.00;97436.38;4985408;28;19925;-89
2021/01/03 06:02:43;;;;;;;;;;;;;;;2.46;100.00;97436.16;5001029;28;19949;-91
2021/01/03 06:05:22;;;;;;;;;;;;;;;2.42;100.00;97445.84;4982513;28;20931;-90
2021/01/03 06:08:02;;;;;;;;;;;;;;;2.51;100.00;97452.41;5000117;28;20013;-89
2021/01/03 06:10:30;;;;;;;;;;;;;;;2.43;100.00;97451.00;4982920;28;19921;-92
2021/01/03 06:12:59;;;;;;;;;;;;;;;2.52;100.00;97462.13;4975516;28;19918;-91
2021/01/03 06:15:27;;;;;;;;;;;;;;;2.63;100.00;97458.47;4958573;28;19925;-92
2021/01/03 06:17:55;;;;;;;;;;;;;;;2.65;100.00;97464.41;4958660;28;19953;-89
2021/01/03 06:20:23;;;;;;;;;;;;;;;2.61;100.00;97463.28;4976785;28;19914;-91
2021/01/03 06:22:53;;;;;;;;;;;;;;;2.63;100.00;97461.16;4962876;28;19914;-90
2021/01/03 06:25:18;;;;;;;;;;;;;;;2.58;100.00;97459.22;4980446;28;19914;-88
2021/01/03 06:27:45;;;;;;;;;;;;;;;2.46;100.00;97460.47;4960958;28;19914;-84
2021/01/03 06:30:13;;;;;;;;;;;;;;;2.68;100.00;97466.59;4978136;28;19914;-88
2021/01/03 06:32:58;;;;;;;;;;;;;;;2.64;100.00;97462.78;4985080;28;19921;-87
2021/01/03 06:35:27;;;;;;;;;;;;;;;2.64;100.00;97463.59;4987748;28;19921;-88
2021/01/03 06:38:12;;;;;;;;;;;;;;;2.75;100.00;97461.00;4991040;28;19924;-86
2021/01/03 06:40:39;;;;;;;;;;;;;;;2.79;100.00;97460.19;4994796;28;19918;-83
2021/01/03 06:43:10;;;;;;;;;;;;;;;2.67;100.00;97473.06;4998566;28;19929;-88
2021/01/03 06:45:48;;;;;;;;;;;;;;;2.74;100.00;97476.38;4999850;28;19968;-88
2021/01/03 06:48:13;;;;;;;;;;;;;;;2.69;100.00;97476.34;5017786;28;20442;-91
2021/01/03 06:50:57;;;;;;;;;;;;;;;2.57;100.00;97476.47;5017276;28;19914;-92
2021/01/03 06:54:01;;;;;;;;;;;;;;;2.58;100.00;97475.41;5016102;28;19905;-91
2021/01/03 06:56:57;;;;;;;;;;;;;;;2.68;100.00;97475.53;4912210;29;19915;-86
2021/01/03 06:59:34;;;;;;;;;;;;;;;2.65;100.00;97480.63;4893748;29;19930;-89
2021/01/03 07:01:59;;;;;;;;;;;;;;;2.65;100.00;97486.00;4978977;28;19918;-88
2021/01/03 07:04:27;;;;;;;;;;;;;;;2.55;100.00;97491.31;5001725;28;19921;-83
2021/01/03 07:06:54;;;;;;;;;;;;;;;2.84;100.00;97484.56;4999759;28;19924;-90
2021/01/03 07:09:19;;;;;;;;;;;;;;;2.93;100.00;97493.81;4996691;28;19918;-85
2021/01/03 07:11:51;;;;;;;;;;;;;;;2.95;100.00;97502.47;4983208;28;20434;-78
2021/01/03 07:14:22;;;;;;;;;;;;;;;2.85;100.00;97512.38;4997535;28;19921;-88
2021/01/03 07:16:49;;;;;;;;;;;;;;;2.87;100.00;97505.66;4979511;28;20012;-87
2021/01/03 07:19:36;;;;;;;;;;;;;;;2.78;100.00;97512.59;4980090;28;19920;-89
2021/01/03 07:22:04;;;;;;;;;;;;;;;2.96;100.00;97514.91;4996360;28;19962;-91
2021/01/03 07:24:30;;;;;;;;;;;;;;;3.03;100.00;97514.69;4997561;28;19920;-83
2021/01/03 07:27:14;;;;;;;;;;;;;;;3.11;100.00;97517.72;4962645;28;19918;-87
2021/01/03 07:29:54;;;;;;;;;;;;;;;3.20;100.00;97516.16;4977664;28;20363;-88
2021/01/03 07:32:20;;;;;;;;;;;;;;;2.90;100.00;97521.34;4959711;28;20008;-87
2021/01/03 07:34:49;;;;;;;;;;;;;;;2.99;100.00;97524.38;4959614;28;20414;-89
2021/01/03 07:37:25;;;;;;;;;;;;;;;3.11;100.00;97527.72;4960002;28;19914;-87
2021/01/03 07:39:58;;;;;;;;;;;;;;;3.04;100.00;97519.81;4960541;28;20034;-89
2021/01/03 07:42:25;;;;;;;;;;;;;;;2.90;100.00;97515.94;4960484;28;19914;-88
2021/01/03 07:44:51;;;;;;;;;;;;;;;2.71;100.00;97522.78;4959807;28;20060;-87
2021/01/03 07:47:35;;;;;;;;;;;;;;;2.90;100.00;97528.63;4964120;28;19973;-87
2021/01/03 07:50:15;;;;;;;;;;;;;;;2.83;100.00;97528.84;4960450;28;20052;-89
2021/01/03 07:52:41;;;;;;;;;;;;;;;2.77;100.00;97527.16;4959336;28;19925;-84
2021/01/03 07:55:11;;;;;;;;;;;;;;;2.84;100.00;97532.34;4960144;28;19914;-84
2021/01/03 07:57:36;;;;;;;;;;;;;;;2.88;100.00;97534.25;4958818;28;20380;-88
2021/01/03 08:00:03;;;;;;;;;;;;;;;3.06;100.00;97535.78;4976887;28;19972;-89
2021/01/03 08:02:30;;;;;;;;;;;;;;;2.93;100.00;97539.72;4959067;28;20016;-88
2021/01/03 08:04:59;;;;;;;;;;;;;;;2.97;100.00;97537.34;4976343;28;19924;-88
2021/01/03 08:07:25;;;;;;;;;;;;;;;2.93;100.00;97536.22;4958812;28;19914;-88
2021/01/03 08:09:51;;;;;;;;;;;;;;;2.91;100.00;97544.59;4958455;28;19964;-91
2021/01/03 08:12:20;;;;;;;;;;;;;;;2.89;100.00;97541.31;4975790;28;19925;-88
2021/01/03 08:14:46;;;;;;;;;;;;;;;2.96;100.00;97541.91;4958515;28;19921;-88
2021/01/03 08:17:23;;;;;;;;;;;;;;;2.89;100.00;97541.31;4958246;28;19925;-90
2021/01/03 08:19:49;;;;;;;;;;;;;;;2.96;100.00;97541.91;4958711;28;20013;-87
2021/01/03 08:22:21;;;;;;;;;;;;;;;2.97;100.00;97542.72;4974846;28;20349;-86
2021/01/03 08:24:51;;;;;;;;;;;;;;;2.97;100.00;97546.25;4975051;28;19964;-87
2021/01/03 08:27:19;;;;;;;;;;;;;;;3.07;100.00;97543.63;4958324;28;19969;-86
2021/01/03 08:29:50;;;;;;;;;;;;;;;3.24;100.00;97547.00;4958704;28;19914;-88
2021/01/03 08:32:17;;;;;;;;;;;;;;;3.15;100.00;97553.97;4959320;28;19918;-86
2021/01/03 08:34:49;;;;;;;;;;;;;;;3.23;100.00;97556.19;4967938;28;20367;-87
2021/01/03 08:37:15;;;;;;;;;;;;;;;3.40;100.00;97557.94;4987971;28;19918;-90
2021/01/03 08:39:41;;;;;;;;;;;;;;;3.24;100.00;97570.50;4983979;28;19914;-90
2021/01/03 08:42:12;;;;;;;;;;;;;;;3.36;100.00;97563.03;4972134;28;20337;-85
2021/01/03 08:44:46;;;;;;;;;;;;;;;3.34;100.00;97559.78;4968464;28;19928;-83
2021/01/03 08:47:16;;;;;;;;;;;;;;;3.28;100.00;97560.00;4970637;28;19987;-88
2021/01/03 08:49:42;;;;;;;;;;;;;;;3.27;100.00;97566.47;4966172;28;20008;-85
2021/01/03 08:52:20;;;;;;;;;;;;;;;3.31;100.00;97565.72;4986222;28;20013;-89
2021/01/03 08:54:47;;;;;;;;;;;;;;;3.35;100.00;97566.84;4979466;28;20001;-90
2021/01/03 08:57:13;;;;;;;;;;;;;;;3.44;100.00;97567.16;4986482;28;19918;-87
2021/01/03 08:59:39;;;;;;;;;;;;;;;3.39;100.00;97572.50;4986772;28;19968;-88
2021/01/03 09:02:14;;;;;;;;;;;;;;;3.44;100.00;97572.56;4969597;28;20295;-90
2021/01/03 09:04:39;;;;;;;;;;;;;;;3.40;100.00;97568.75;4986387;28;20367;-88
2021/01/03 09:07:07;;;;;;;;;;;;;;;3.37;100.00;97569.25;4975848;28;20021;-87
2021/01/03 09:09:32;;;;;;;;;;;;;;;3.39;100.00;97583.31;4994618;28;19994;-86
2021/01/03 09:11:59;;;;;;;;;;;;;;;3.47;100.00;97582.88;4982173;28;19972;-87
2021/01/03 09:14:34;;;;;;;;;;;;;;;3.53;100.00;97576.41;4974344;28;19906;-81
2021/01/03 09:17:17;;;;;;;;;;;;;;;3.64;100.00;97578.94;4974024;28;19957;-88
2021/01/03 09:20:05;;;;;;;;;;;;;;;3.66;100.00;97584.09;4984098;28;19965;-88
2021/01/03 09:22:39;;;;;;;;;;;;;;;3.54;100.00;97583.47;4977845;28;19921;-84
2021/01/03 09:25:05;;;;;;;;;;;;;;;3.74;100.00;97580.88;4973960;28;19925;-75
2021/01/03 09:27:36;;;;;;;;;;;;;;;3.86;100.00;97578.78;4978952;28;19914;-88
2021/01/03 09:30:06;;;;;;;;;;;;;;;3.89;100.00;97586.38;4991201;28;19961;-89
2021/01/03 09:32:45;;;;;;;;;;;;;;;3.92;99.48;97579.63;4976089;28;20405;-89
2021/01/03 09:35:20;;;;;;;;;;;;;;;3.98;99.65;97576.69;4966035;28;19910;-92
2021/01/03 09:38:01;;;;;;;;;;;;;;;3.97;99.12;97585.09;4975183;28;19914;-86
2021/01/03 09:40:33;;;;;;;;;;;;;;;3.96;97.96;97589.69;4971387;28;19914;-85
2021/01/03 09:43:22;;;;;;;;;;;;;;;3.98;98.74;97587.50;4990326;28;20405;-89
2021/01/03 09:46:01;;;;;;;;;;;;;;;3.87;98.95;97593.94;4977381;28;20286;-87
2021/01/03 09:48:35;;;;;;;;;;;;;;;3.93;99.70;97592.09;4985256;28;19925;-89
2021/01/03 09:51:18;;;;;;;;;;;;;;;4.30;98.75;97585.50;4983226;28;20433;-91
2021/01/03 09:53:47;;;;;;;;;;;;;;;4.13;99.02;97578.69;4981330;28;20068;-88
2021/01/03 09:56:15;;;;;;;;;;;;;;;4.00;99.16;97588.09;4963615;28;19918;-78
2021/01/03 09:58:42;;;;;;;;;;;;;;;3.96;99.66;97583.44;4981461;28;19925;-77
2021/01/03 10:01:26;;;;;;;;;;;;;;;3.96;99.62;97581.56;4962422;28;19918;-82
2021/01/03 10:03:51;;;;;;;;;;;;;;;3.94;99.75;97583.72;4982156;28;19914;-89
2021/01/03 10:06:19;;;;;;;;;;;;;;;4.03;99.44;97568.63;4987448;28;20345;-81
2021/01/03 10:08:45;;;;;;;;;;;;;;;4.07;99.79;97577.81;4979762;28;19914;-87
2021/01/03 10:11:11;;;;;;;;;;;;;;;4.13;99.57;97568.66;4996395;28;19925;-78
2021/01/03 10:13:37;;;;;;;;;;;;;;;4.15;99.43;97566.50;4966281;28;19964;-75
2021/01/03 10:16:19;;;;;;;;;;;;;;;4.27;99.39;97571.69;4960284;28;19918;-79
2021/01/03 10:18:45;;;;;;;;;;;;;;;4.19;98.60;97566.78;4990029;28;19922;-76
2021/01/03 10:21:24;;;;;;;;;;;;;;;4.18;98.69;97568.69;4976156;28;19914;-75
2021/01/03 10:23:54;;;;;;;;;;;;;;;4.22;99.22;97566.28;4987982;28;19918;-74
2021/01/03 10:26:25;;;;;;;;;;;;;;;4.20;99.41;97563.00;4974135;28;19925;-77
2021/01/03 10:28:51;;;;;;;;;;;;;;;4.12;99.51;97561.63;4954063;28;19914;-75
2021/01/03 10:31:17;;;;;;;;;;;;;;;4.19;98.84;97559.50;4954188;28;19922;-77
2021/01/03 10:33:46;;;;;;;;;;;;;;;4.17;99.05;97552.69;4954701;28;19961;-75
2021/01/03 10:36:19;;;;;;;;;;;;;;;4.24;98.51;97555.97;4972568;28;19961;-75
2021/01/03 10:38:45;;;;;;;;;;;;;;;4.28;98.13;97557.09;4967120;28;19957;-80
2021/01/03 10:41:10;;;;;;;;;;;;;;;4.26;97.46;97551.13;4973120;28;20567;-77
2021/01/03 10:43:35;;;;;;;;;;;;;;;5.23;95.17;97556.47;4990479;28;19976;-80
2021/01/03 10:46:01;;;;;;;;;;;;;;;5.65;92.08;97558.06;4989845;28;19917;-77
2021/01/03 10:48:26;;;;;;;;;;;;;;;5.30;91.72;97557.00;4972511;28;20004;-76
2021/01/03 10:50:51;;;;;;;;;;;;;;;5.49;90.52;97556.44;4973183;28;19918;-77
2021/01/03 10:53:16;;;;;;;;;;;;;;;4.72;94.06;97543.94;4990606;28;20310;-77
2021/01/03 10:55:42;;;;;;;;;;;;;;;4.73;94.97;97540.97;4973450;28;19922;-79
2021/01/03 10:58:07;;;;;;;;;;;;;;;4.55;96.32;97533.34;4972913;28;19917;-79
2021/01/03 11:00:32;;;;;;;;;;;;;;;4.41;95.51;97532.22;4963470;28;20012;-79
2021/01/03 11:02:57;;;;;;;;;;;;;;;4.36;95.69;97539.50;4953904;28;19946;-77
2021/01/03 11:05:23;;;;;;;;;;;;;;;4.31;96.49;97527.59;4971459;28;20001;-79
2021/01/03 11:07:48;;;;;;;;;;;;;;;4.33;97.72;97527.31;4956322;28;19929;-77
2021/01/03 11:10:14;;;;;;;;;;;;;;;4.24;96.91;97523.50;4981319;28;19913;-84
2021/01/03 11:12:39;;;;;;;;;;;;;;;4.26;96.74;97522.16;4987652;28;19925;-82
2021/01/03 11:15:05;;;;;;;;;;;;;;;4.28;97.02;97527.31;4990456;28;19914;-76
2021/01/03 11:17:30;;;;;;;;;;;;;;;4.26;97.59;97519.44;4979405;28;19918;-79
2021/01/03 11:19:56;;;;;;;;;;;;;;;4.31;97.70;97527.59;4958177;28;19968;-80
2021/01/03 11:22:21;;;;;;;;;;;;;;;4.49;97.65;97520.06;4970145;28;19921;-82
2021/01/03 11:24:46;;;;;;;;;;;;;;;4.45;97.39;97514.34;4970133;28;20049;-78
2021/01/03 11:27:13;;;;;;;;;;;;;;;4.54;98.06;97518.16;4952996;28;20355;-78
2021/01/03 11:29:38;;;;;;;;;;;;;;;4.53;96.58;97513.03;4956383;28;20450;-85
2021/01/03 11:32:06;;;;;;;;;;;;;;;4.42;96.05;97514.88;4974032;28;20033;-83
2021/01/03 11:34:32;;;;;;;;;;;;;;;4.45;96.16;97516.28;4956155;28;19922;-79
2021/01/03 11:37:02;;;;;;;;;;;;;;;4.43;95.54;97515.72;4956625;28;19917;-83
2021/01/03 11:39:29;;;;;;;;;;;;;;;4.40;95.66;97510.81;4974393;28;19918;-79
2021/01/03 11:41:55;;;;;;;;;;;;;;;4.39;95.83;97507.31;4974641;28;20302;-78
2021/01/03 11:44:21;;;;;;;;;;;;;;;4.33;95.43;97503.78;4974662;28;19918;-83
2021/01/03 11:46:47;;;;;;;;;;;;;;;4.28;95.18;97501.06;4974414;28;19922;-81
2021/01/03 11:49:12;;;;;;;;;;;;;;;4.67;94.43;97501.41;4974399;28;19921;-81
2021/01/03 11:51:37;;;;;;;;;;;;;;;4.44;95.05;97503.81;4974283;28;19918;-83
2021/01/03 11:54:03;;;;;;;;;;;;;;;4.50;95.53;97508.97;4957081;28;20007;-83
2021/01/03 11:56:29;;;;;;;;;;;;;;;4.53;94.90;97505.72;4974046;28;19914;-81
2021/01/03 11:58:54;;;;;;;;;;;;;;;4.56;95.11;97499.78;4973730;28;20404;-79
2021/01/03 12:01:20;;;;;;;;;;;;;;;4.74;94.60;97499.25;4987583;28;19925;-80
2021/01/03 12:03:46;;;;;;;;;;;;;;;4.57;94.65;97501.41;4962562;28;19921;-81
2021/01/03 12:06:14;;;;;;;;;;;;;;;4.50;95.42;97505.44;4981972;28;20592;-84
2021/01/03 12:08:41;;;;;;;;;;;;;;;4.64;96.15;97495.72;4962440;28;19924;-80
2021/01/03 12:11:06;;;;;;;;;;;;;;;4.45;95.20;97489.97;4980587;28;20096;-82
2021/01/03 12:13:31;;;;;;;;;;;;;;;4.40;95.27;97491.88;4982885;28;19918;-82
2021/01/03 12:15:56;;;;;;;;;;;;;;;4.46;95.65;97488.91;4981318;28;19926;-84
2021/01/03 12:18:22;;;;;;;;;;;;;;;4.35;94.76;97492.69;4965430;28;19918;-83
2021/01/03 12:20:47;;;;;;;;;;;;;;;4.49;95.31;97487.56;4965204;28;20350;-85
2021/01/03 12:23:12;;;;;;;;;;;;;;;4.43;96.36;97491.34;4984120;28;20038;-85
2021/01/03 12:25:37;;;;;;;;;;;;;;;4.48;95.67;97494.06;4985769;28;19997;-89
2021/01/03 12:28:03;;;;;;;;;;;;;;;4.49;95.66;97490.28;4979062;28;19918;-89
2021/01/03 12:30:28;;;;;;;;;;;;;;;4.66;95.40;97496.28;4984291;28;19925;-90
2021/01/03 12:32:53;;;;;;;;;;;;;;;4.53;95.36;97499.50;4983035;28;19929;-86
2021/01/03 12:35:19;;;;;;;;;;;;;;;4.56;96.12;97507.91;4968614;28;20036;-91
2021/01/03 12:37:44;;;;;;;;;;;;;;;4.45;95.16;97508.16;4966216;28;19993;-90
2021/01/03 12:40:10;;;;;;;;;;;;;;;4.43;95.13;97507.59;4966019;28;19914;-87
2021/01/03 12:42:37;;;;;;;;;;;;;;;4.38;95.76;97505.69;4988374;28;19913;-87
2021/01/03 12:45:04;;;;;;;;;;;;;;;4.27;95.70;97498.59;4987100;28;20470;-89
2021/01/03 12:47:32;;;;;;;;;;;;;;;4.20;96.59;97500.75;4970031;28;19918;-87
2021/01/03 12:49:57;;;;;;;;;;;;;;;4.21;97.19;97497.78;4982059;28;20408;-86
2021/01/03 12:52:23;;;;;;;;;;;;;;;4.26;97.32;97499.72;4968826;28;19914;-87
2021/01/03 12:54:48;;;;;;;;;;;;;;;4.30;97.46;97498.06;4985586;28;19925;-87
2021/01/03 12:57:13;;;;;;;;;;;;;;;4.29;97.08;97501.88;4965555;28;20393;-88